RYR4749 EDSB-LICJ
Flight info
| Callsign | RYR4749 |
|---|---|
| Flight time | 1h 49m |
| Altitude | 19000 |
| Route | STR1Z STR R7 LUPEN/N0365F230 Y711 NATOR/N0441F370 N850 ODINA DCT SPEZI DCT BAKRO DCT RONAB/N0400F290 L12 GIANO |
| Aircraft | B738/M-SDE3FGILRWY/SB1 |
Departure
| Time | 2026-05-05 10:27 |
|---|---|
| Airport | Karlsruhe Baden-Baden Airport (EDSB) |
Arrival
| Time | 2026-05-05 12:16 |
|---|---|
| Airport | Falcone–Borsellino Airport (LICJ) |
| Time | Latitude | Longitude | Altitude | Speed | Heading |
|---|---|---|---|---|---|
| 2026-05-05 10:12 | 48.78016 | 8.08781 | 407 ft | 0 kts | 159° |
| 2026-05-05 10:20 | 48.78015 | 8.08781 | 411 ft | 0 kts | 163° |
| 2026-05-05 10:21 | 48.78012 | 8.08774 | 408 ft | 1 kts | 227° |
| 2026-05-05 10:21 | 48.78019 | 8.08761 | 409 ft | 4 kts | 316° |
| 2026-05-05 10:21 | 48.78060 | 8.08729 | 411 ft | 8 kts | 359° |
| 2026-05-05 10:21 | 48.78114 | 8.08762 | 409 ft | 8 kts | 31° |
| 2026-05-05 10:22 | 48.78163 | 8.08807 | 407 ft | 8 kts | 31° |
| 2026-05-05 10:22 | 48.78212 | 8.08846 | 411 ft | 8 kts | 9° |
| 2026-05-05 10:22 | 48.78250 | 8.08794 | 411 ft | 8 kts | 301° |
| 2026-05-05 10:22 | 48.78277 | 8.08727 | 411 ft | 7 kts | 302° |
| 2026-05-05 10:23 | 48.78320 | 8.08705 | 411 ft | 7 kts | 24° |
| 2026-05-05 10:23 | 48.78361 | 8.08743 | 411 ft | 7 kts | 32° |
| 2026-05-05 10:23 | 48.78403 | 8.08782 | 411 ft | 7 kts | 32° |
| 2026-05-05 10:23 | 48.78454 | 8.08829 | 411 ft | 11 kts | 31° |
| 2026-05-05 10:24 | 48.78531 | 8.08901 | 410 ft | 15 kts | 31° |
| 2026-05-05 10:24 | 48.78629 | 8.08991 | 412 ft | 18 kts | 32° |
| 2026-05-05 10:24 | 48.78735 | 8.09092 | 412 ft | 18 kts | 32° |
| 2026-05-05 10:24 | 48.78838 | 8.09189 | 412 ft | 17 kts | 32° |
| 2026-05-05 10:25 | 48.78935 | 8.09281 | 411 ft | 13 kts | 32° |
| 2026-05-05 10:25 | 48.79004 | 8.09281 | 409 ft | 11 kts | 315° |
| 2026-05-05 10:25 | 48.79045 | 8.09188 | 411 ft | 10 kts | 303° |
| 2026-05-05 10:25 | 48.79056 | 8.09104 | 411 ft | 8 kts | 230° |
| 2026-05-05 10:26 | 48.79031 | 8.09077 | 412 ft | 0 kts | 211° |
| 2026-05-05 10:26 | 48.78971 | 8.09021 | 412 ft | 39 kts | 211° |
| 2026-05-05 10:26 | 48.78528 | 8.08606 | 412 ft | 109 kts | 211° |
| 2026-05-05 10:26 | 48.77705 | 8.07837 | 421 ft | 167 kts | 212° |
| 2026-05-05 10:27 | 48.76705 | 8.06922 | 1206 ft | 161 kts | 211° |
| 2026-05-05 10:27 | 48.75761 | 8.06028 | 2024 ft | 165 kts | 214° |
| 2026-05-05 10:27 | 48.74721 | 8.04953 | 2362 ft | 198 kts | 214° |
| 2026-05-05 10:27 | 48.73511 | 8.03700 | 2604 ft | 223 kts | 214° |
| 2026-05-05 10:28 | 48.72175 | 8.02332 | 2960 ft | 240 kts | 213° |
| 2026-05-05 10:28 | 48.70560 | 8.01347 | 3247 ft | 260 kts | 193° |
| 2026-05-05 10:28 | 48.68768 | 8.00733 | 3978 ft | 265 kts | 193° |
| 2026-05-05 10:28 | 48.66976 | 8.00101 | 4901 ft | 264 kts | 193° |
| 2026-05-05 10:29 | 48.65203 | 7.99457 | 5715 ft | 266 kts | 193° |
| 2026-05-05 10:29 | 48.63396 | 7.98784 | 6570 ft | 269 kts | 193° |
| 2026-05-05 10:29 | 48.61572 | 7.98095 | 7433 ft | 271 kts | 193° |
| 2026-05-05 10:29 | 48.59735 | 7.97392 | 8296 ft | 274 kts | 193° |
| 2026-05-05 10:30 | 48.57879 | 7.96678 | 9158 ft | 276 kts | 193° |
| 2026-05-05 10:30 | 48.56000 | 7.96024 | 9981 ft | 279 kts | 184° |
| 2026-05-05 10:30 | 48.54060 | 7.96479 | 10374 ft | 297 kts | 155° |
| 2026-05-05 10:30 | 48.52230 | 7.98158 | 10612 ft | 320 kts | 147° |
| 2026-05-05 10:31 | 48.50341 | 8.00074 | 11134 ft | 331 kts | 147° |
| 2026-05-05 10:31 | 48.48417 | 8.02025 | 11877 ft | 335 kts | 147° |
| 2026-05-05 10:31 | 48.46467 | 8.03971 | 12681 ft | 337 kts | 148° |
| 2026-05-05 10:31 | 48.44491 | 8.05913 | 13467 ft | 340 kts | 149° |
| 2026-05-05 10:32 | 48.42492 | 8.07853 | 14162 ft | 344 kts | 149° |
| 2026-05-05 10:32 | 48.40460 | 8.09808 | 14838 ft | 348 kts | 149° |
| 2026-05-05 10:32 | 48.38435 | 8.11748 | 15504 ft | 352 kts | 149° |
| 2026-05-05 10:32 | 48.36359 | 8.13729 | 16189 ft | 355 kts | 149° |
| 2026-05-05 10:33 | 48.34260 | 8.15729 | 16852 ft | 358 kts | 149° |
| 2026-05-05 10:33 | 48.32144 | 8.17743 | 17563 ft | 361 kts | 150° |
| 2026-05-05 10:33 | 48.30004 | 8.19777 | 18303 ft | 365 kts | 150° |
| 2026-05-05 10:33 | 48.27845 | 8.21828 | 18951 ft | 369 kts | 150° |
| 2026-05-05 10:34 | 48.25664 | 8.23897 | 19648 ft | 372 kts | 150° |
| 2026-05-05 10:34 | 48.23466 | 8.25982 | 20254 ft | 376 kts | 150° |
| 2026-05-05 10:34 | 48.21237 | 8.28092 | 20811 ft | 380 kts | 150° |
| 2026-05-05 10:34 | 48.19012 | 8.30174 | 21368 ft | 382 kts | 152° |
| 2026-05-05 10:35 | 48.16600 | 8.31862 | 21888 ft | 384 kts | 161° |
| 2026-05-05 10:35 | 48.14027 | 8.32941 | 22408 ft | 385 kts | 171° |
| 2026-05-05 10:35 | 48.11375 | 8.33593 | 22980 ft | 386 kts | 172° |
| 2026-05-05 10:35 | 48.08710 | 8.34205 | 23536 ft | 388 kts | 172° |
| 2026-05-05 10:36 | 48.06028 | 8.34821 | 23956 ft | 391 kts | 172° |
| 2026-05-05 10:36 | 48.03329 | 8.35454 | 24417 ft | 393 kts | 172° |
| 2026-05-05 10:36 | 48.00626 | 8.36100 | 24905 ft | 393 kts | 172° |
| 2026-05-05 10:36 | 47.97919 | 8.36755 | 25360 ft | 395 kts | 172° |
| 2026-05-05 10:37 | 47.95201 | 8.37415 | 25794 ft | 396 kts | 172° |
| 2026-05-05 10:37 | 47.92470 | 8.38080 | 26216 ft | 398 kts | 172° |
| 2026-05-05 10:37 | 47.89728 | 8.38747 | 26658 ft | 399 kts | 171° |
| 2026-05-05 10:37 | 47.87038 | 8.39399 | 27111 ft | 399 kts | 171° |
| 2026-05-05 10:38 | 47.84255 | 8.40071 | 27525 ft | 401 kts | 171° |
| 2026-05-05 10:38 | 47.81532 | 8.40721 | 27903 ft | 403 kts | 171° |
| 2026-05-05 10:38 | 47.78756 | 8.41381 | 28268 ft | 405 kts | 171° |
| 2026-05-05 10:38 | 47.75966 | 8.42044 | 28643 ft | 407 kts | 171° |
| 2026-05-05 10:39 | 47.73281 | 8.42682 | 28993 ft | 408 kts | 171° |
| 2026-05-05 10:39 | 47.70459 | 8.43353 | 29227 ft | 413 kts | 172° |
| 2026-05-05 10:39 | 47.67713 | 8.43953 | 29423 ft | 417 kts | 173° |
| 2026-05-05 10:39 | 47.64808 | 8.44430 | 29749 ft | 420 kts | 174° |
| 2026-05-05 10:40 | 47.61897 | 8.44839 | 30133 ft | 420 kts | 175° |
| 2026-05-05 10:40 | 47.58994 | 8.45231 | 30600 ft | 417 kts | 175° |
| 2026-05-05 10:40 | 47.56159 | 8.45619 | 31122 ft | 413 kts | 175° |
| 2026-05-05 10:40 | 47.53312 | 8.46020 | 31620 ft | 409 kts | 175° |
| 2026-05-05 10:41 | 47.50479 | 8.46427 | 32027 ft | 407 kts | 175° |
| 2026-05-05 10:41 | 47.47730 | 8.46827 | 32384 ft | 406 kts | 175° |
| 2026-05-05 10:41 | 47.44955 | 8.47233 | 32745 ft | 405 kts | 175° |
| 2026-05-05 10:41 | 47.42152 | 8.47643 | 33135 ft | 403 kts | 175° |
| 2026-05-05 10:42 | 47.36657 | 8.48447 | 33892 ft | 400 kts | 176° |
| 2026-05-05 10:42 | 47.33893 | 8.48851 | 34147 ft | 400 kts | 176° |
| 2026-05-05 10:42 | 47.31120 | 8.49255 | 34345 ft | 402 kts | 176° |
| 2026-05-05 10:43 | 47.28329 | 8.49661 | 34564 ft | 403 kts | 176° |
| 2026-05-05 10:43 | 47.25537 | 8.50066 | 34772 ft | 404 kts | 176° |
| 2026-05-05 10:43 | 47.22728 | 8.50474 | 34953 ft | 406 kts | 176° |
| 2026-05-05 10:43 | 47.19911 | 8.50883 | 35173 ft | 406 kts | 176° |
| 2026-05-05 10:44 | 47.17096 | 8.51291 | 35401 ft | 407 kts | 176° |
| 2026-05-05 10:44 | 47.14271 | 8.51700 | 35587 ft | 408 kts | 176° |
| 2026-05-05 10:44 | 47.11437 | 8.52111 | 35775 ft | 409 kts | 176° |
| 2026-05-05 10:44 | 47.08599 | 8.52521 | 35998 ft | 410 kts | 176° |
| 2026-05-05 10:45 | 47.05753 | 8.52932 | 36169 ft | 412 kts | 176° |
| 2026-05-05 10:45 | 47.00006 | 8.53760 | 36336 ft | 416 kts | 177° |
| 2026-05-05 10:45 | 46.97168 | 8.54170 | 36637 ft | 414 kts | 177° |
| 2026-05-05 10:46 | 46.94297 | 8.54585 | 36874 ft | 414 kts | 177° |
| 2026-05-05 10:46 | 46.88527 | 8.55415 | 36915 ft | 420 kts | 177° |
| 2026-05-05 10:47 | 46.82740 | 8.56248 | 36932 ft | 415 kts | 177° |
| 2026-05-05 10:47 | 46.76995 | 8.57073 | 36931 ft | 414 kts | 177° |
| 2026-05-05 10:48 | 46.71256 | 8.57893 | 36987 ft | 414 kts | 177° |
| 2026-05-05 10:48 | 46.65519 | 8.58713 | 36968 ft | 414 kts | 177° |
| 2026-05-05 10:49 | 46.59784 | 8.59529 | 36998 ft | 414 kts | 178° |
| 2026-05-05 10:49 | 46.54039 | 8.60337 | 36999 ft | 416 kts | 178° |
| 2026-05-05 10:50 | 46.48282 | 8.61144 | 37011 ft | 413 kts | 178° |
| 2026-05-05 10:50 | 46.42558 | 8.61946 | 37021 ft | 413 kts | 178° |
| 2026-05-05 10:51 | 46.36863 | 8.62754 | 37002 ft | 414 kts | 178° |
| 2026-05-05 10:51 | 46.31130 | 8.63571 | 37030 ft | 415 kts | 178° |
| 2026-05-05 10:52 | 46.25375 | 8.64385 | 37024 ft | 415 kts | 178° |
| 2026-05-05 10:52 | 46.19613 | 8.65201 | 37028 ft | 417 kts | 178° |
| 2026-05-05 10:53 | 46.13832 | 8.66016 | 37024 ft | 418 kts | 178° |
| 2026-05-05 10:53 | 46.08060 | 8.67339 | 37028 ft | 425 kts | 168° |
| 2026-05-05 10:54 | 46.02357 | 8.69748 | 37020 ft | 428 kts | 168° |
| 2026-05-05 10:54 | 45.96652 | 8.72179 | 37025 ft | 427 kts | 168° |
| 2026-05-05 10:55 | 45.90968 | 8.74563 | 37032 ft | 424 kts | 169° |
| 2026-05-05 10:55 | 45.85304 | 8.76910 | 37030 ft | 423 kts | 169° |
| 2026-05-05 10:56 | 45.79684 | 8.79227 | 37014 ft | 423 kts | 169° |
| 2026-05-05 10:56 | 45.74021 | 8.81556 | 37023 ft | 424 kts | 169° |
| 2026-05-05 10:57 | 45.68348 | 8.83885 | 37017 ft | 424 kts | 169° |
| 2026-05-05 10:57 | 45.62674 | 8.86211 | 37021 ft | 424 kts | 169° |
| 2026-05-05 10:58 | 45.57005 | 8.88530 | 37021 ft | 424 kts | 169° |
| 2026-05-05 10:58 | 45.51335 | 8.90844 | 37016 ft | 424 kts | 169° |
| 2026-05-05 10:59 | 45.45672 | 8.93151 | 37014 ft | 423 kts | 169° |
| 2026-05-05 10:59 | 45.40003 | 8.95454 | 37001 ft | 424 kts | 170° |
| 2026-05-05 11:00 | 45.34340 | 8.97752 | 37022 ft | 423 kts | 170° |
| 2026-05-05 11:00 | 45.28667 | 9.00047 | 36997 ft | 424 kts | 170° |
| 2026-05-05 11:01 | 45.22991 | 9.02340 | 37010 ft | 424 kts | 170° |
| 2026-05-05 11:01 | 45.17307 | 9.04631 | 37001 ft | 425 kts | 170° |
| 2026-05-05 11:02 | 45.11626 | 9.06916 | 36998 ft | 425 kts | 170° |
| 2026-05-05 11:02 | 45.05935 | 9.09200 | 36983 ft | 425 kts | 170° |
| 2026-05-05 11:03 | 45.00246 | 9.11479 | 36984 ft | 425 kts | 170° |
| 2026-05-05 11:03 | 44.94561 | 9.13752 | 36988 ft | 424 kts | 170° |
| 2026-05-05 11:04 | 44.88883 | 9.16017 | 36991 ft | 424 kts | 170° |
| 2026-05-05 11:04 | 44.83210 | 9.18277 | 36971 ft | 423 kts | 170° |
| 2026-05-05 11:05 | 44.77539 | 9.20529 | 36982 ft | 423 kts | 170° |
| 2026-05-05 11:05 | 44.71902 | 9.22763 | 36968 ft | 424 kts | 170° |
| 2026-05-05 11:06 | 44.66229 | 9.25007 | 36980 ft | 424 kts | 170° |
| 2026-05-05 11:06 | 44.60559 | 9.27245 | 36959 ft | 423 kts | 170° |
| 2026-05-05 11:07 | 44.55207 | 9.29356 | 36967 ft | 424 kts | 170° |
| 2026-05-05 11:07 | 44.49517 | 9.31594 | 36959 ft | 425 kts | 170° |
| 2026-05-05 11:08 | 44.44778 | 9.33454 | 36951 ft | 426 kts | 170° |
| 2026-05-05 11:08 | 44.39072 | 9.35690 | 36961 ft | 426 kts | 170° |
| 2026-05-05 11:09 | 44.33356 | 9.37926 | 36953 ft | 427 kts | 170° |
| 2026-05-05 11:09 | 44.27644 | 9.40156 | 36959 ft | 426 kts | 170° |
| 2026-05-05 11:10 | 44.21940 | 9.42378 | 36946 ft | 425 kts | 170° |
| 2026-05-05 11:10 | 44.16551 | 9.44474 | 36959 ft | 423 kts | 170° |
| 2026-05-05 11:11 | 44.11990 | 9.46243 | 36946 ft | 422 kts | 170° |
| 2026-05-05 11:11 | 44.07274 | 9.48070 | 36950 ft | 422 kts | 171° |
| 2026-05-05 11:12 | 44.02246 | 9.50015 | 36954 ft | 421 kts | 171° |
| 2026-05-05 11:12 | 43.97327 | 9.51914 | 36970 ft | 421 kts | 171° |
| 2026-05-05 11:13 | 43.92179 | 9.53897 | 36972 ft | 422 kts | 171° |
| 2026-05-05 11:13 | 43.86516 | 9.56076 | 36972 ft | 423 kts | 171° |
| 2026-05-05 11:14 | 43.80875 | 9.58243 | 36965 ft | 424 kts | 171° |
| 2026-05-05 11:14 | 43.75207 | 9.60597 | 36974 ft | 428 kts | 167° |
| 2026-05-05 11:15 | 43.69599 | 9.63427 | 36977 ft | 430 kts | 166° |
| 2026-05-05 11:15 | 43.63991 | 9.66304 | 36979 ft | 430 kts | 166° |
| 2026-05-05 11:16 | 43.58371 | 9.69143 | 36977 ft | 430 kts | 166° |
| 2026-05-05 11:16 | 43.52740 | 9.71959 | 36978 ft | 431 kts | 166° |
| 2026-05-05 11:17 | 43.47107 | 9.74767 | 36992 ft | 431 kts | 166° |
| 2026-05-05 11:17 | 43.41471 | 9.77571 | 36989 ft | 431 kts | 166° |
| 2026-05-05 11:18 | 43.35839 | 9.80369 | 36975 ft | 430 kts | 167° |
| 2026-05-05 11:18 | 43.30211 | 9.83158 | 36983 ft | 430 kts | 167° |
| 2026-05-05 11:19 | 43.24587 | 9.85942 | 36981 ft | 429 kts | 166° |
| 2026-05-05 11:19 | 43.18966 | 9.88721 | 36971 ft | 430 kts | 166° |
| 2026-05-05 11:20 | 43.13457 | 9.92019 | 36990 ft | 434 kts | 161° |
| 2026-05-05 11:20 | 43.08203 | 9.95449 | 36992 ft | 435 kts | 161° |
| 2026-05-05 11:21 | 43.02775 | 9.98976 | 36987 ft | 435 kts | 161° |
| 2026-05-05 11:21 | 42.97298 | 10.02482 | 36973 ft | 435 kts | 161° |
| 2026-05-05 11:22 | 42.91810 | 10.05964 | 36987 ft | 435 kts | 161° |
| 2026-05-05 11:22 | 42.86318 | 10.09436 | 36983 ft | 435 kts | 161° |
| 2026-05-05 11:23 | 42.80819 | 10.12905 | 36986 ft | 436 kts | 161° |
| 2026-05-05 11:23 | 42.75315 | 10.16372 | 36988 ft | 436 kts | 162° |
| 2026-05-05 11:24 | 42.69803 | 10.19836 | 36986 ft | 436 kts | 162° |
| 2026-05-05 11:24 | 42.64291 | 10.23295 | 36981 ft | 436 kts | 161° |
| 2026-05-05 11:25 | 42.58775 | 10.26750 | 36983 ft | 437 kts | 161° |
| 2026-05-05 11:25 | 42.53256 | 10.30199 | 36975 ft | 437 kts | 162° |
| 2026-05-05 11:26 | 42.47737 | 10.33641 | 36988 ft | 437 kts | 162° |
| 2026-05-05 11:26 | 42.42205 | 10.37085 | 36992 ft | 438 kts | 162° |
| 2026-05-05 11:27 | 42.36665 | 10.40527 | 36989 ft | 438 kts | 162° |
| 2026-05-05 11:27 | 42.31118 | 10.43967 | 36994 ft | 439 kts | 162° |
| 2026-05-05 11:28 | 42.25561 | 10.47406 | 36993 ft | 439 kts | 162° |
| 2026-05-05 11:28 | 42.20003 | 10.50840 | 36998 ft | 440 kts | 162° |
| 2026-05-05 11:29 | 42.14437 | 10.54272 | 36996 ft | 440 kts | 162° |
| 2026-05-05 11:29 | 42.08874 | 10.57696 | 36976 ft | 440 kts | 162° |
| 2026-05-05 11:30 | 42.03307 | 10.61115 | 36999 ft | 439 kts | 162° |
| 2026-05-05 11:30 | 41.97739 | 10.64527 | 37008 ft | 439 kts | 162° |
| 2026-05-05 11:31 | 41.92170 | 10.67934 | 37011 ft | 440 kts | 162° |
| 2026-05-05 11:31 | 41.86623 | 10.71321 | 37004 ft | 440 kts | 162° |
| 2026-05-05 11:32 | 41.81042 | 10.74722 | 37021 ft | 440 kts | 162° |
| 2026-05-05 11:32 | 41.75456 | 10.78119 | 37025 ft | 441 kts | 162° |
| 2026-05-05 11:33 | 41.69899 | 10.81493 | 37025 ft | 441 kts | 162° |
| 2026-05-05 11:33 | 41.64303 | 10.84884 | 37020 ft | 441 kts | 162° |
| 2026-05-05 11:34 | 41.58701 | 10.88272 | 37033 ft | 442 kts | 162° |
| 2026-05-05 11:34 | 41.53098 | 10.91654 | 37035 ft | 442 kts | 163° |
| 2026-05-05 11:35 | 41.47480 | 10.95038 | 37033 ft | 443 kts | 163° |
| 2026-05-05 11:35 | 41.41864 | 10.98416 | 37029 ft | 443 kts | 163° |
| 2026-05-05 11:36 | 41.36279 | 11.01768 | 37048 ft | 443 kts | 163° |
| 2026-05-05 11:36 | 41.30658 | 11.05135 | 37043 ft | 443 kts | 163° |
| 2026-05-05 11:37 | 41.25029 | 11.08500 | 37042 ft | 443 kts | 163° |
| 2026-05-05 11:37 | 41.19401 | 11.11859 | 37036 ft | 443 kts | 163° |
| 2026-05-05 11:38 | 41.13773 | 11.15212 | 37042 ft | 443 kts | 163° |
| 2026-05-05 11:38 | 41.08182 | 11.18536 | 37042 ft | 443 kts | 163° |
| 2026-05-05 11:39 | 41.02549 | 11.21878 | 37052 ft | 443 kts | 163° |
| 2026-05-05 11:39 | 40.96921 | 11.25212 | 37038 ft | 442 kts | 163° |
| 2026-05-05 11:40 | 40.91287 | 11.28543 | 37053 ft | 442 kts | 163° |
| 2026-05-05 11:40 | 40.85703 | 11.31838 | 37046 ft | 442 kts | 163° |
| 2026-05-05 11:41 | 40.80079 | 11.35150 | 37051 ft | 442 kts | 163° |
| 2026-05-05 11:41 | 40.74463 | 11.38452 | 37051 ft | 441 kts | 163° |
| 2026-05-05 11:42 | 40.68848 | 11.41746 | 37056 ft | 441 kts | 163° |
| 2026-05-05 11:42 | 40.63267 | 11.45015 | 37053 ft | 441 kts | 163° |
| 2026-05-05 11:43 | 40.57654 | 11.48297 | 37058 ft | 441 kts | 163° |
| 2026-05-05 11:43 | 40.52037 | 11.51574 | 37051 ft | 441 kts | 163° |
| 2026-05-05 11:44 | 40.46428 | 11.54842 | 37061 ft | 441 kts | 163° |
| 2026-05-05 11:44 | 40.40854 | 11.58082 | 37059 ft | 441 kts | 163° |
| 2026-05-05 11:45 | 40.35234 | 11.61344 | 37057 ft | 441 kts | 163° |
| 2026-05-05 11:45 | 40.32405 | 11.62982 | 36720 ft | 444 kts | 163° |
| 2026-05-05 11:45 | 40.29599 | 11.64609 | 36418 ft | 437 kts | 162° |
| 2026-05-05 11:45 | 40.26839 | 11.66211 | 36072 ft | 431 kts | 163° |
| 2026-05-05 11:46 | 40.24106 | 11.67794 | 35670 ft | 427 kts | 163° |
| 2026-05-05 11:46 | 40.21397 | 11.69359 | 35281 ft | 424 kts | 163° |
| 2026-05-05 11:46 | 40.18702 | 11.70914 | 34903 ft | 420 kts | 163° |
| 2026-05-05 11:46 | 40.16068 | 11.72432 | 34534 ft | 417 kts | 163° |
| 2026-05-05 11:47 | 40.13416 | 11.73959 | 34163 ft | 414 kts | 163° |
| 2026-05-05 11:47 | 40.10790 | 11.75469 | 33758 ft | 411 kts | 163° |
| 2026-05-05 11:47 | 40.08180 | 11.76970 | 33357 ft | 408 kts | 163° |
| 2026-05-05 11:47 | 40.05592 | 11.78457 | 32977 ft | 404 kts | 163° |
| 2026-05-05 11:48 | 40.00497 | 11.81380 | 32260 ft | 397 kts | 163° |
| 2026-05-05 11:48 | 39.97977 | 11.82824 | 31898 ft | 394 kts | 163° |
| 2026-05-05 11:48 | 39.95510 | 11.84237 | 31550 ft | 391 kts | 163° |
| 2026-05-05 11:49 | 39.93027 | 11.85657 | 31200 ft | 388 kts | 163° |
| 2026-05-05 11:49 | 39.90569 | 11.87063 | 30856 ft | 385 kts | 163° |
| 2026-05-05 11:49 | 39.88122 | 11.88461 | 30514 ft | 382 kts | 163° |
| 2026-05-05 11:49 | 39.85697 | 11.89843 | 30257 ft | 377 kts | 163° |
| 2026-05-05 11:50 | 39.83312 | 11.91195 | 29991 ft | 372 kts | 163° |
| 2026-05-05 11:50 | 39.80941 | 11.92532 | 29666 ft | 369 kts | 163° |
| 2026-05-05 11:50 | 39.78624 | 11.93836 | 29289 ft | 366 kts | 163° |
| 2026-05-05 11:50 | 39.76297 | 11.95146 | 28951 ft | 362 kts | 163° |
| 2026-05-05 11:51 | 39.73993 | 11.96442 | 28577 ft | 360 kts | 163° |
| 2026-05-05 11:51 | 39.71706 | 11.97727 | 28241 ft | 357 kts | 163° |
| 2026-05-05 11:51 | 39.69433 | 11.99004 | 27886 ft | 354 kts | 163° |
| 2026-05-05 11:51 | 39.67180 | 12.00269 | 27540 ft | 352 kts | 163° |
| 2026-05-05 11:52 | 39.64938 | 12.01527 | 27200 ft | 351 kts | 163° |
| 2026-05-05 11:52 | 39.62727 | 12.02766 | 26860 ft | 350 kts | 163° |
| 2026-05-05 11:52 | 39.60473 | 12.04026 | 26540 ft | 357 kts | 162° |
| 2026-05-05 11:52 | 39.58165 | 12.05313 | 26202 ft | 365 kts | 162° |
| 2026-05-05 11:53 | 39.55825 | 12.06621 | 25837 ft | 365 kts | 162° |
| 2026-05-05 11:53 | 39.53501 | 12.07923 | 25473 ft | 363 kts | 162° |
| 2026-05-05 11:53 | 39.51184 | 12.09222 | 25116 ft | 361 kts | 162° |
| 2026-05-05 11:53 | 39.48885 | 12.10508 | 24767 ft | 359 kts | 161° |
| 2026-05-05 11:54 | 39.46590 | 12.11791 | 24412 ft | 358 kts | 161° |
| 2026-05-05 11:54 | 39.44307 | 12.13066 | 24061 ft | 356 kts | 161° |
| 2026-05-05 11:54 | 39.42035 | 12.14333 | 23699 ft | 355 kts | 161° |
| 2026-05-05 11:54 | 39.39797 | 12.15579 | 23305 ft | 354 kts | 161° |
| 2026-05-05 11:55 | 39.37536 | 12.16839 | 22910 ft | 352 kts | 161° |
| 2026-05-05 11:55 | 39.35293 | 12.18087 | 22557 ft | 349 kts | 161° |
| 2026-05-05 11:55 | 39.33066 | 12.19326 | 22205 ft | 346 kts | 161° |
| 2026-05-05 11:55 | 39.30861 | 12.20551 | 21865 ft | 344 kts | 161° |
| 2026-05-05 11:56 | 39.28666 | 12.21770 | 21531 ft | 341 kts | 161° |
| 2026-05-05 11:56 | 39.26488 | 12.22978 | 21190 ft | 339 kts | 161° |
| 2026-05-05 11:56 | 39.24326 | 12.24176 | 20860 ft | 337 kts | 162° |
| 2026-05-05 11:56 | 39.22181 | 12.25365 | 20526 ft | 335 kts | 162° |
| 2026-05-05 11:57 | 39.20045 | 12.26547 | 20194 ft | 333 kts | 162° |
| 2026-05-05 11:57 | 39.18639 | 12.27325 | 19975 ft | 332 kts | 162° |
| 2026-05-05 11:57 | 39.16517 | 12.28499 | 19646 ft | 331 kts | 162° |
| 2026-05-05 11:57 | 39.14404 | 12.29666 | 19310 ft | 329 kts | 162° |
| 2026-05-05 11:58 | 39.11621 | 12.31203 | 18886 ft | 328 kts | 162° |
| 2026-05-05 11:58 | 39.09523 | 12.32360 | 18560 ft | 327 kts | 162° |
| 2026-05-05 11:58 | 39.08109 | 12.33140 | 18332 ft | 327 kts | 162° |
| 2026-05-05 11:58 | 39.06024 | 12.34290 | 17960 ft | 326 kts | 162° |
| 2026-05-05 11:59 | 39.03941 | 12.35437 | 17608 ft | 324 kts | 162° |
| 2026-05-05 11:59 | 39.01899 | 12.36562 | 17277 ft | 322 kts | 162° |
| 2026-05-05 11:59 | 38.99850 | 12.37690 | 16949 ft | 319 kts | 162° |
| 2026-05-05 11:59 | 38.97810 | 12.38812 | 16626 ft | 317 kts | 162° |
| 2026-05-05 12:00 | 38.95787 | 12.39924 | 16308 ft | 315 kts | 162° |
| 2026-05-05 12:00 | 38.93778 | 12.41028 | 15987 ft | 313 kts | 162° |
| 2026-05-05 12:00 | 38.91782 | 12.42123 | 15670 ft | 311 kts | 162° |
| 2026-05-05 12:00 | 38.89797 | 12.43212 | 15358 ft | 309 kts | 162° |
| 2026-05-05 12:01 | 38.87826 | 12.44292 | 15049 ft | 307 kts | 162° |
| 2026-05-05 12:01 | 38.85873 | 12.45382 | 14742 ft | 306 kts | 161° |
| 2026-05-05 12:01 | 38.83948 | 12.46526 | 14455 ft | 304 kts | 160° |
| 2026-05-05 12:01 | 38.82038 | 12.47684 | 14156 ft | 302 kts | 160° |
| 2026-05-05 12:02 | 38.80142 | 12.48836 | 13850 ft | 301 kts | 160° |
| 2026-05-05 12:02 | 38.78251 | 12.49981 | 13503 ft | 300 kts | 160° |
| 2026-05-05 12:02 | 38.76395 | 12.51102 | 13185 ft | 298 kts | 160° |
| 2026-05-05 12:02 | 38.74522 | 12.52230 | 12875 ft | 296 kts | 160° |
| 2026-05-05 12:03 | 38.72664 | 12.53347 | 12552 ft | 294 kts | 160° |
| 2026-05-05 12:03 | 38.70819 | 12.54455 | 12248 ft | 292 kts | 160° |
| 2026-05-05 12:03 | 38.68986 | 12.55553 | 11943 ft | 290 kts | 160° |
| 2026-05-05 12:03 | 38.67161 | 12.56647 | 11628 ft | 289 kts | 160° |
| 2026-05-05 12:04 | 38.65345 | 12.57733 | 11337 ft | 287 kts | 159° |
| 2026-05-05 12:04 | 38.63540 | 12.58813 | 11049 ft | 286 kts | 159° |
| 2026-05-05 12:04 | 38.61741 | 12.59888 | 10747 ft | 284 kts | 159° |
| 2026-05-05 12:04 | 38.59954 | 12.60955 | 10458 ft | 283 kts | 159° |
| 2026-05-05 12:05 | 38.58179 | 12.62016 | 10224 ft | 279 kts | 159° |
| 2026-05-05 12:05 | 38.56440 | 12.63055 | 10069 ft | 273 kts | 159° |
| 2026-05-05 12:05 | 38.54720 | 12.64080 | 9764 ft | 272 kts | 159° |
| 2026-05-05 12:05 | 38.53007 | 12.65101 | 9459 ft | 271 kts | 159° |
| 2026-05-05 12:06 | 38.51304 | 12.66115 | 9175 ft | 269 kts | 159° |
| 2026-05-05 12:06 | 38.49609 | 12.67124 | 8906 ft | 268 kts | 159° |
| 2026-05-05 12:06 | 38.47945 | 12.68115 | 8629 ft | 267 kts | 159° |
| 2026-05-05 12:06 | 38.46259 | 12.69118 | 8354 ft | 267 kts | 159° |
| 2026-05-05 12:07 | 38.44595 | 12.70107 | 8219 ft | 260 kts | 159° |
| 2026-05-05 12:07 | 38.42974 | 12.71072 | 8080 ft | 254 kts | 159° |
| 2026-05-05 12:07 | 38.41368 | 12.72028 | 7834 ft | 255 kts | 158° |
| 2026-05-05 12:07 | 38.39762 | 12.72986 | 7580 ft | 255 kts | 158° |
| 2026-05-05 12:08 | 38.38153 | 12.73945 | 7329 ft | 254 kts | 158° |
| 2026-05-05 12:08 | 38.36553 | 12.74899 | 7075 ft | 253 kts | 158° |
| 2026-05-05 12:08 | 38.34958 | 12.75849 | 6835 ft | 253 kts | 158° |
| 2026-05-05 12:08 | 38.33367 | 12.76795 | 6579 ft | 252 kts | 158° |
| 2026-05-05 12:09 | 38.31796 | 12.77722 | 6317 ft | 252 kts | 157° |
| 2026-05-05 12:09 | 38.30211 | 12.78656 | 6059 ft | 251 kts | 156° |
| 2026-05-05 12:09 | 38.28622 | 12.79592 | 5800 ft | 251 kts | 156° |
| 2026-05-05 12:09 | 38.27040 | 12.80523 | 5542 ft | 250 kts | 156° |
| 2026-05-05 12:10 | 38.25462 | 12.81451 | 5238 ft | 251 kts | 156° |
| 2026-05-05 12:10 | 38.23871 | 12.82364 | 4952 ft | 251 kts | 158° |
| 2026-05-05 12:10 | 38.22266 | 12.83233 | 4678 ft | 250 kts | 158° |
| 2026-05-05 12:10 | 38.20670 | 12.84092 | 4411 ft | 248 kts | 158° |
| 2026-05-05 12:11 | 38.19084 | 12.84947 | 4160 ft | 247 kts | 158° |
| 2026-05-05 12:11 | 38.17499 | 12.85802 | 3894 ft | 247 kts | 157° |
| 2026-05-05 12:11 | 38.15929 | 12.86650 | 3676 ft | 242 kts | 157° |
| 2026-05-05 12:11 | 38.14399 | 12.87478 | 3328 ft | 237 kts | 157° |
| 2026-05-05 12:12 | 38.12978 | 12.88384 | 3146 ft | 221 kts | 141° |
| 2026-05-05 12:12 | 38.12251 | 12.89968 | 3065 ft | 204 kts | 98° |
| 2026-05-05 12:12 | 38.12322 | 12.91707 | 2859 ft | 192 kts | 86° |
| 2026-05-05 12:12 | 38.12484 | 12.93369 | 2612 ft | 190 kts | 76° |
| 2026-05-05 12:13 | 38.12877 | 12.94939 | 2376 ft | 182 kts | 70° |
| 2026-05-05 12:13 | 38.13335 | 12.96383 | 2141 ft | 172 kts | 67° |
| 2026-05-05 12:13 | 38.13795 | 12.97761 | 1916 ft | 168 kts | 67° |
| 2026-05-05 12:13 | 38.14253 | 12.99131 | 1698 ft | 169 kts | 67° |
| 2026-05-05 12:14 | 38.14711 | 13.00506 | 1460 ft | 167 kts | 66° |
| 2026-05-05 12:14 | 38.15161 | 13.01855 | 1252 ft | 164 kts | 66° |
| 2026-05-05 12:14 | 38.15590 | 13.03144 | 1065 ft | 151 kts | 65° |
| 2026-05-05 12:14 | 38.15983 | 13.04322 | 829 ft | 141 kts | 65° |
| 2026-05-05 12:15 | 38.16361 | 13.05453 | 675 ft | 138 kts | 65° |
| 2026-05-05 12:15 | 38.16745 | 13.06583 | 504 ft | 139 kts | 65° |
| 2026-05-05 12:15 | 38.17120 | 13.07702 | 289 ft | 137 kts | 65° |
| 2026-05-05 12:15 | 38.17481 | 13.08801 | 94 ft | 132 kts | 64° |
| 2026-05-05 12:16 | 38.17820 | 13.09815 | 52 ft | 110 kts | 66° |
| 2026-05-05 12:16 | 38.18062 | 13.10534 | 52 ft | 67 kts | 66° |
| 2026-05-05 12:16 | 38.18193 | 13.10914 | 50 ft | 35 kts | 67° |
| 2026-05-05 12:16 | 38.18284 | 13.11186 | 52 ft | 32 kts | 67° |
| 2026-05-05 12:17 | 38.18369 | 13.11436 | 49 ft | 30 kts | 66° |
| 2026-05-05 12:17 | 38.18446 | 13.11665 | 52 ft | 28 kts | 67° |
| 2026-05-05 12:17 | 38.18514 | 13.11868 | 52 ft | 15 kts | 64° |
| 2026-05-05 12:17 | 38.18574 | 13.11881 | 50 ft | 10 kts | 325° |
| 2026-05-05 12:18 | 38.18597 | 13.11804 | 52 ft | 10 kts | 277° |
| 2026-05-05 12:18 | 38.18606 | 13.11715 | 52 ft | 11 kts | 277° |
| 2026-05-05 12:18 | 38.18616 | 13.11620 | 52 ft | 11 kts | 276° |
| 2026-05-05 12:18 | 38.18606 | 13.11530 | 51 ft | 10 kts | 246° |
| 2026-05-05 12:19 | 38.18574 | 13.11437 | 50 ft | 13 kts | 246° |
| 2026-05-05 12:19 | 38.18537 | 13.11327 | 52 ft | 14 kts | 246° |
| 2026-05-05 12:19 | 38.18500 | 13.11216 | 52 ft | 13 kts | 248° |
| 2026-05-05 12:19 | 38.18465 | 13.11112 | 52 ft | 13 kts | 246° |
| 2026-05-05 12:20 | 38.18430 | 13.11009 | 50 ft | 12 kts | 246° |
| 2026-05-05 12:20 | 38.18457 | 13.10929 | 52 ft | 11 kts | 321° |
| 2026-05-05 12:20 | 38.18502 | 13.10923 | 52 ft | 8 kts | 60° |
| 2026-05-05 12:20 | 38.18540 | 13.10968 | 52 ft | 8 kts | 9° |
| 2026-05-05 12:21 | 38.18567 | 13.10935 | 52 ft | 6 kts | 246° |
| 2026-05-05 12:21 | 38.18549 | 13.10889 | 52 ft | 4 kts | 248° |
| 2026-05-05 12:21 | 38.18548 | 13.10885 | 52 ft | 0 kts | 247° |